This is the latest recevied weather packets stored in our database for station/object DH0BRO-3. If no packets are shown the sender has not sent any weather packets the latest 10 day(s).
| Time | Temp. | Humidity | Pressure | Rain* | Wind** | Luminosity | Snow |
|---|---|---|---|---|---|---|---|
| 1777441898 | 4.44° C | 72% | 1030.2 hPa | 0 mm | - | - | - |
| 1777435577 | 1.67° C | 77% | 1029 hPa | 0 mm | - | - | - |
| 1777431965 | 2.22° C | 76% | 1028.9 hPa | 0 mm | - | - | - |
| 1777429256 | 2.78° C | 73% | 1028.7 hPa | 0 mm | - | - | - |
| 1777426547 | 3.89° C | 71% | 1028.4 hPa | 0 mm | - | - | - |
| 1777418419 | 7.22° C | 57% | 1027.8 hPa | 0 mm | - | - | - |
| 1777417517 | 7.78° C | 56% | 1027.7 hPa | 0 mm | - | - | - |
| 1777408712 | 10° C | 48% | 1026.7 hPa | 0 mm | - | - | - |
| 1777402391 | 12.22° C | 48% | 1025.8 hPa | 0 mm | - | - | - |
| 1777398177 | 14.44° C | 35% | 1025.3 hPa | 0 mm | - | - | - |
| 1777393662 | 15.56° C | 33% | 1025.2 hPa | 0 mm | - | - | - |
| 1777388244 | 16.11° C | 32% | 1025.4 hPa | 0 mm | - | - | - |
| 1777376122 | 15° C | 35% | 1026.6 hPa | 0 mm | - | - | - |
| 1777372510 | 14.44° C | 37% | 1026.7 hPa | 0 mm | - | - | - |
| 1777369645 | 13.33° C | 39% | 1026.9 hPa | 0 mm | - | - | - |
| 1777367840 | 12.78° C | 39% | 1026.9 hPa | 0 mm | - | - | - |
| 1777351886 | 5.56° C | 61% | 1025.9 hPa | 0 mm | - | - | - |
| 1777346468 | 5.56° C | 60% | 1025.3 hPa | 0 mm | - | - | - |
| 1777343779 | 5° C | 64% | 1025.1 hPa | 0 mm | - | - | - |
| 1777342856 | 4.44° C | 68% | 1025 hPa | 0 mm | - | - | - |
| 1777341953 | 4.44° C | 70% | 1024.9 hPa | 0 mm | - | - | - |
| 1777336535 | 5.56° C | 69% | 1024.4 hPa | 0 mm | - | - | - |
| 1777334729 | 6.67° C | 65% | 1024.3 hPa | 0 mm | - | - | - |
| 1777333827 | 7.78° C | 62% | 1024.3 hPa | 0 mm | - | - | - |
| 1777332020 | 8.33° C | 56% | 1024.2 hPa | 0 mm | - | - | - |
* Rain latest hour (hover to see other rain measurements)
** Current wind speed in m/s (hover to see current wind gust speed)